sensor_id;sensor_type;location;lat;lon;timestamp;temperature;humidity
20891;DHT22;10605;52.968;8.844;2023-07-31T00:00:32;16.00;99.90
20891;DHT22;10605;52.968;8.844;2023-07-31T00:03:00;15.90;99.90
20891;DHT22;10605;52.968;8.844;2023-07-31T00:05:39;16.00;99.90
20891;DHT22;10605;52.968;8.844;2023-07-31T00:08:05;15.90;99.90
20891;DHT22;10605;52.968;8.844;2023-07-31T00:10:33;16.00;99.90
20891;DHT22;10605;52.968;8.844;2023-07-31T00:12:59;16.00;99.90
20891;DHT22;10605;52.968;8.844;2023-07-31T00:15:33;16.00;99.90
20891;DHT22;10605;52.968;8.844;2023-07-31T00:17:59;16.00;99.90
20891;DHT22;10605;52.968;8.844;2023-07-31T00:20:27;16.00;99.90
20891;DHT22;10605;52.968;8.844;2023-07-31T00:22:53;16.00;99.90
20891;DHT22;10605;52.968;8.844;2023-07-31T00:25:19;16.00;99.90
20891;DHT22;10605;52.968;8.844;2023-07-31T00:27:44;16.00;99.90
20891;DHT22;10605;52.968;8.844;2023-07-31T00:30:13;15.90;99.90
20891;DHT22;10605;52.968;8.844;2023-07-31T00:32:41;16.00;99.90
20891;DHT22;10605;52.968;8.844;2023-07-31T00:35:10;15.90;99.90
20891;DHT22;10605;52.968;8.844;2023-07-31T00:37:35;16.00;99.90
20891;DHT22;10605;52.968;8.844;2023-07-31T00:40:03;15.90;99.90
20891;DHT22;10605;52.968;8.844;2023-07-31T00:42:48;15.90;99.90
20891;DHT22;10605;52.968;8.844;2023-07-31T00:45:14;15.90;99.90
20891;DHT22;10605;52.968;8.844;2023-07-31T00:47:40;15.90;99.90
20891;DHT22;10605;52.968;8.844;2023-07-31T00:50:13;15.90;99.90
20891;DHT22;10605;52.968;8.844;2023-07-31T00:52:43;15.90;99.90
20891;DHT22;10605;52.968;8.844;2023-07-31T00:55:11;15.80;99.90
20891;DHT22;10605;52.968;8.844;2023-07-31T00:57:41;15.80;99.90
20891;DHT22;10605;52.968;8.844;2023-07-31T01:00:10;15.80;99.90
20891;DHT22;10605;52.968;8.844;2023-07-31T01:02:39;15.80;99.90
20891;DHT22;10605;52.968;8.844;2023-07-31T01:05:12;15.80;99.90
20891;DHT22;10605;52.968;8.844;2023-07-31T01:10:27;15.80;99.90
20891;DHT22;10605;52.968;8.844;2023-07-31T01:12:59;15.80;99.90
20891;DHT22;10605;52.968;8.844;2023-07-31T01:15:25;15.90;99.90
20891;DHT22;10605;52.968;8.844;2023-07-31T01:17:55;15.80;99.90
20891;DHT22;10605;52.968;8.844;2023-07-31T01:20:27;15.80;99.90
20891;DHT22;10605;52.968;8.844;2023-07-31T01:28:25;15.90;99.90
20891;DHT22;10605;52.968;8.844;2023-07-31T01:30:55;15.90;99.90
20891;DHT22;10605;52.968;8.844;2023-07-31T01:33:23;15.90;99.90
20891;DHT22;10605;52.968;8.844;2023-07-31T01:35:52;15.90;99.90
20891;DHT22;10605;52.968;8.844;2023-07-31T01:38:28;15.90;99.90
20891;DHT22;10605;52.968;8.844;2023-07-31T01:41:22;15.90;99.90
20891;DHT22;10605;52.968;8.844;2023-07-31T01:43:50;15.90;99.90
20891;DHT22;10605;52.968;8.844;2023-07-31T01:46:16;15.90;99.90
20891;DHT22;10605;52.968;8.844;2023-07-31T01:48:41;15.90;99.90
20891;DHT22;10605;52.968;8.844;2023-07-31T01:51:07;15.80;99.90
20891;DHT22;10605;52.968;8.844;2023-07-31T01:53:41;15.80;99.90
20891;DHT22;10605;52.968;8.844;2023-07-31T01:56:13;15.80;99.90
20891;DHT22;10605;52.968;8.844;2023-07-31T01:58:57;15.80;99.90
20891;DHT22;10605;52.968;8.844;2023-07-31T02:01:25;15.80;99.90
20891;DHT22;10605;52.968;8.844;2023-07-31T02:03:54;15.80;99.90
20891;DHT22;10605;52.968;8.844;2023-07-31T02:06:29;15.80;99.90
20891;DHT22;10605;52.968;8.844;2023-07-31T02:08:57;15.70;99.90
20891;DHT22;10605;52.968;8.844;2023-07-31T02:11:28;15.70;99.90
20891;DHT22;10605;52.968;8.844;2023-07-31T02:14:06;15.60;99.90
20891;DHT22;10605;52.968;8.844;2023-07-31T02:16:59;15.60;99.90
20891;DHT22;10605;52.968;8.844;2023-07-31T02:19:28;15.60;99.90
20891;DHT22;10605;52.968;8.844;2023-07-31T02:21:56;15.60;99.90
20891;DHT22;10605;52.968;8.844;2023-07-31T02:24:26;15.50;99.90
20891;DHT22;10605;52.968;8.844;2023-07-31T02:26:54;15.50;99.90
20891;DHT22;10605;52.968;8.844;2023-07-31T02:29:28;15.50;99.90
20891;DHT22;10605;52.968;8.844;2023-07-31T02:32:11;15.50;99.90
20891;DHT22;10605;52.968;8.844;2023-07-31T02:34:39;15.50;99.90
20891;DHT22;10605;52.968;8.844;2023-07-31T02:37:13;15.50;99.90
20891;DHT22;10605;52.968;8.844;2023-07-31T02:39:41;15.50;99.90
20891;DHT22;10605;52.968;8.844;2023-07-31T02:42:06;15.50;99.90
20891;DHT22;10605;52.968;8.844;2023-07-31T02:44:35;15.40;99.90
20891;DHT22;10605;52.968;8.844;2023-07-31T02:47:03;15.50;99.90
20891;DHT22;10605;52.968;8.844;2023-07-31T02:49:29;15.40;99.90
20891;DHT22;10605;52.968;8.844;2023-07-31T02:52:17;15.40;99.90
20891;DHT22;10605;52.968;8.844;2023-07-31T02:54:43;15.40;99.90
20891;DHT22;10605;52.968;8.844;2023-07-31T02:57:09;15.40;99.90
20891;DHT22;10605;52.968;8.844;2023-07-31T02:59:34;15.30;99.90
20891;DHT22;10605;52.968;8.844;2023-07-31T03:02:08;15.30;99.90
20891;DHT22;10605;52.968;8.844;2023-07-31T03:04:34;15.30;99.90
20891;DHT22;10605;52.968;8.844;2023-07-31T03:07:19;15.30;99.90
20891;DHT22;10605;52.968;8.844;2023-07-31T03:09:45;15.30;99.90
20891;DHT22;10605;52.968;8.844;2023-07-31T03:12:15;15.30;99.90
20891;DHT22;10605;52.968;8.844;2023-07-31T03:14:41;15.30;99.90
20891;DHT22;10605;52.968;8.844;2023-07-31T03:17:06;15.20;99.90
20891;DHT22;10605;52.968;8.844;2023-07-31T03:19:32;15.20;99.90
20891;DHT22;10605;52.968;8.844;2023-07-31T03:22:18;15.30;99.90
20891;DHT22;10605;52.968;8.844;2023-07-31T03:24:49;15.20;99.90
20891;DHT22;10605;52.968;8.844;2023-07-31T03:27:26;15.20;99.90
20891;DHT22;10605;52.968;8.844;2023-07-31T03:29:52;15.30;99.90
20891;DHT22;10605;52.968;8.844;2023-07-31T03:32:33;15.20;99.90
20891;DHT22;10605;52.968;8.844;2023-07-31T03:34:59;15.30;99.90
20891;DHT22;10605;52.968;8.844;2023-07-31T03:37:28;15.20;99.90
20891;DHT22;10605;52.968;8.844;2023-07-31T03:39:59;15.30;99.90
20891;DHT22;10605;52.968;8.844;2023-07-31T03:42:29;15.30;99.90
20891;DHT22;10605;52.968;8.844;2023-07-31T03:44:58;15.30;99.90
20891;DHT22;10605;52.968;8.844;2023-07-31T03:47:30;15.30;99.90
20891;DHT22;10605;52.968;8.844;2023-07-31T03:50:01;15.30;99.90
20891;DHT22;10605;52.968;8.844;2023-07-31T03:52:26;15.30;99.90
20891;DHT22;10605;52.968;8.844;2023-07-31T03:54:54;15.40;99.90
20891;DHT22;10605;52.968;8.844;2023-07-31T03:57:25;15.40;99.90
20891;DHT22;10605;52.968;8.844;2023-07-31T03:59:53;15.40;99.90
20891;DHT22;10605;52.968;8.844;2023-07-31T04:02:19;15.40;99.90
20891;DHT22;10605;52.968;8.844;2023-07-31T04:05:05;15.40;99.90
20891;DHT22;10605;52.968;8.844;2023-07-31T04:08:04;15.50;99.90
20891;DHT22;10605;52.968;8.844;2023-07-31T04:10:33;15.50;99.90
20891;DHT22;10605;52.968;8.844;2023-07-31T04:13:01;15.50;99.90
20891;DHT22;10605;52.968;8.844;2023-07-31T04:15:29;15.50;99.90
20891;DHT22;10605;52.968;8.844;2023-07-31T04:17:57;15.50;99.90
20891;DHT22;10605;52.968;8.844;2023-07-31T04:20:27;15.50;99.90
20891;DHT22;10605;52.968;8.844;2023-07-31T04:22:58;15.50;99.90
20891;DHT22;10605;52.968;8.844;2023-07-31T04:25:27;15.60;99.90
20891;DHT22;10605;52.968;8.844;2023-07-31T04:27:58;15.50;99.90
20891;DHT22;10605;52.968;8.844;2023-07-31T04:30:31;15.50;99.90
20891;DHT22;10605;52.968;8.844;2023-07-31T04:32:57;15.60;99.90
20891;DHT22;10605;52.968;8.844;2023-07-31T04:35:25;15.70;99.90
20891;DHT22;10605;52.968;8.844;2023-07-31T04:37:54;15.70;99.90
20891;DHT22;10605;52.968;8.844;2023-07-31T04:43:26;15.60;99.90
20891;DHT22;10605;52.968;8.844;2023-07-31T04:45:57;15.60;99.90
20891;DHT22;10605;52.968;8.844;2023-07-31T04:48:25;15.60;99.90
20891;DHT22;10605;52.968;8.844;2023-07-31T04:50:54;15.60;99.90
20891;DHT22;10605;52.968;8.844;2023-07-31T04:53:22;15.60;99.90
20891;DHT22;10605;52.968;8.844;2023-07-31T04:55:56;15.50;99.90
20891;DHT22;10605;52.968;8.844;2023-07-31T04:58:27;15.60;99.90
20891;DHT22;10605;52.968;8.844;2023-07-31T05:00:55;15.60;99.90
20891;DHT22;10605;52.968;8.844;2023-07-31T05:03:20;15.60;99.90
20891;DHT22;10605;52.968;8.844;2023-07-31T05:05:52;15.70;99.90
20891;DHT22;10605;52.968;8.844;2023-07-31T05:08:23;15.80;99.90
20891;DHT22;10605;52.968;8.844;2023-07-31T05:10:51;15.90;99.90
20891;DHT22;10605;52.968;8.844;2023-07-31T05:13:17;16.00;99.90
20891;DHT22;10605;52.968;8.844;2023-07-31T05:15:45;16.00;99.90
20891;DHT22;10605;52.968;8.844;2023-07-31T05:18:26;16.00;99.90
20891;DHT22;10605;52.968;8.844;2023-07-31T05:20:54;15.90;99.90
20891;DHT22;10605;52.968;8.844;2023-07-31T05:23:19;15.80;99.90
20891;DHT22;10605;52.968;8.844;2023-07-31T05:25:45;15.90;99.90
20891;DHT22;10605;52.968;8.844;2023-07-31T05:28:14;15.90;99.90
20891;DHT22;10605;52.968;8.844;2023-07-31T05:30:43;15.90;99.90
20891;DHT22;10605;52.968;8.844;2023-07-31T05:33:08;15.90;99.90
20891;DHT22;10605;52.968;8.844;2023-07-31T05:35:34;16.00;99.90
20891;DHT22;10605;52.968;8.844;2023-07-31T05:38:00;16.00;99.90
20891;DHT22;10605;52.968;8.844;2023-07-31T05:40:26;16.10;99.90
20891;DHT22;10605;52.968;8.844;2023-07-31T05:42:54;16.20;99.90
20891;DHT22;10605;52.968;8.844;2023-07-31T05:45:23;16.20;99.90
20891;DHT22;10605;52.968;8.844;2023-07-31T05:47:49;16.30;99.90
20891;DHT22;10605;52.968;8.844;2023-07-31T05:50:24;16.30;99.90
20891;DHT22;10605;52.968;8.844;2023-07-31T05:52:55;16.30;99.90
20891;DHT22;10605;52.968;8.844;2023-07-31T05:55:26;16.30;99.90
20891;DHT22;10605;52.968;8.844;2023-07-31T05:57:54;16.30;99.90
20891;DHT22;10605;52.968;8.844;2023-07-31T06:00:37;16.30;99.90
20891;DHT22;10605;52.968;8.844;2023-07-31T06:03:07;16.30;99.90
20891;DHT22;10605;52.968;8.844;2023-07-31T06:05:37;16.40;99.90
20891;DHT22;10605;52.968;8.844;2023-07-31T06:08:03;16.50;99.90
20891;DHT22;10605;52.968;8.844;2023-07-31T06:10:35;16.60;99.90
20891;DHT22;10605;52.968;8.844;2023-07-31T06:13:00;16.60;99.90
20891;DHT22;10605;52.968;8.844;2023-07-31T06:15:29;16.60;99.90
20891;DHT22;10605;52.968;8.844;2023-07-31T06:17:54;16.60;99.90
20891;DHT22;10605;52.968;8.844;2023-07-31T06:20:20;16.60;99.90
20891;DHT22;10605;52.968;8.844;2023-07-31T06:22:45;16.60;99.90
20891;DHT22;10605;52.968;8.844;2023-07-31T06:25:14;16.70;99.90
20891;DHT22;10605;52.968;8.844;2023-07-31T06:27:42;16.60;99.90
20891;DHT22;10605;52.968;8.844;2023-07-31T06:30:08;16.70;99.90
20891;DHT22;10605;52.968;8.844;2023-07-31T06:32:38;16.80;99.90
20891;DHT22;10605;52.968;8.844;2023-07-31T06:35:09;16.80;99.90
20891;DHT22;10605;52.968;8.844;2023-07-31T06:37:35;16.90;99.90
20891;DHT22;10605;52.968;8.844;2023-07-31T06:40:09;16.90;99.90
20891;DHT22;10605;52.968;8.844;2023-07-31T06:42:38;16.90;99.90
20891;DHT22;10605;52.968;8.844;2023-07-31T06:45:07;16.90;99.90
20891;DHT22;10605;52.968;8.844;2023-07-31T06:47:38;16.90;99.90
20891;DHT22;10605;52.968;8.844;2023-07-31T06:50:11;16.80;99.90
20891;DHT22;10605;52.968;8.844;2023-07-31T06:52:39;17.00;99.90
20891;DHT22;10605;52.968;8.844;2023-07-31T06:55:21;17.10;99.90
20891;DHT22;10605;52.968;8.844;2023-07-31T06:57:48;17.10;99.90
20891;DHT22;10605;52.968;8.844;2023-07-31T07:00:15;17.00;99.90
20891;DHT22;10605;52.968;8.844;2023-07-31T07:02:43;17.00;99.90
20891;DHT22;10605;52.968;8.844;2023-07-31T07:05:09;17.00;99.90
20891;DHT22;10605;52.968;8.844;2023-07-31T07:07:38;17.10;99.90
20891;DHT22;10605;52.968;8.844;2023-07-31T07:10:04;17.20;99.90
20891;DHT22;10605;52.968;8.844;2023-07-31T07:12:31;17.40;99.90
20891;DHT22;10605;52.968;8.844;2023-07-31T07:15:02;17.60;99.90
20891;DHT22;10605;52.968;8.844;2023-07-31T07:17:34;17.50;99.90
20891;DHT22;10605;52.968;8.844;2023-07-31T07:20:16;17.40;99.90
20891;DHT22;10605;52.968;8.844;2023-07-31T07:22:55;17.40;99.90
20891;DHT22;10605;52.968;8.844;2023-07-31T07:25:23;17.40;99.90
20891;DHT22;10605;52.968;8.844;2023-07-31T07:28:00;17.40;99.90
20891;DHT22;10605;52.968;8.844;2023-07-31T07:30:35;17.60;99.90
20891;DHT22;10605;52.968;8.844;2023-07-31T07:36:11;18.20;99.90
20891;DHT22;10605;52.968;8.844;2023-07-31T07:39:04;18.10;99.90
20891;DHT22;10605;52.968;8.844;2023-07-31T07:45:30;18.50;99.90
20891;DHT22;10605;52.968;8.844;2023-07-31T07:48:19;18.50;99.90
20891;DHT22;10605;52.968;8.844;2023-07-31T07:50:51;18.40;99.90
20891;DHT22;10605;52.968;8.844;2023-07-31T07:53:30;18.30;99.90
20891;DHT22;10605;52.968;8.844;2023-07-31T08:01:55;18.20;99.90
20891;DHT22;10605;52.968;8.844;2023-07-31T08:07:44;18.20;99.90
20891;DHT22;10605;52.968;8.844;2023-07-31T08:10:35;18.20;99.90
20891;DHT22;10605;52.968;8.844;2023-07-31T08:13:26;18.30;99.90
20891;DHT22;10605;52.968;8.844;2023-07-31T08:15:54;18.40;99.90
20891;DHT22;10605;52.968;8.844;2023-07-31T08:18:30;18.60;99.90
20891;DHT22;10605;52.968;8.844;2023-07-31T08:20:58;18.70;99.90
20891;DHT22;10605;52.968;8.844;2023-07-31T08:23:24;18.80;99.90
20891;DHT22;10605;52.968;8.844;2023-07-31T08:25:50;19.00;99.90
20891;DHT22;10605;52.968;8.844;2023-07-31T08:28:16;18.90;99.90
20891;DHT22;10605;52.968;8.844;2023-07-31T08:30:42;19.00;99.90
20891;DHT22;10605;52.968;8.844;2023-07-31T08:33:08;19.10;99.90
20891;DHT22;10605;52.968;8.844;2023-07-31T08:35:33;19.30;99.90
20891;DHT22;10605;52.968;8.844;2023-07-31T08:37:59;19.30;99.90
20891;DHT22;10605;52.968;8.844;2023-07-31T08:40:25;19.80;99.90
20891;DHT22;10605;52.968;8.844;2023-07-31T08:42:54;20.20;99.90
20891;DHT22;10605;52.968;8.844;2023-07-31T08:45:20;20.20;99.90
20891;DHT22;10605;52.968;8.844;2023-07-31T08:47:49;20.80;99.90
20891;DHT22;10605;52.968;8.844;2023-07-31T08:50:17;20.90;99.90
20891;DHT22;10605;52.968;8.844;2023-07-31T08:52:45;21.20;99.90
20891;DHT22;10605;52.968;8.844;2023-07-31T08:55:11;20.80;99.90
20891;DHT22;10605;52.968;8.844;2023-07-31T08:57:37;20.70;99.90
20891;DHT22;10605;52.968;8.844;2023-07-31T09:00:08;20.50;99.90
20891;DHT22;10605;52.968;8.844;2023-07-31T09:02:48;20.30;99.90
20891;DHT22;10605;52.968;8.844;2023-07-31T09:05:16;20.40;99.90
20891;DHT22;10605;52.968;8.844;2023-07-31T09:07:44;20.30;99.90
20891;DHT22;10605;52.968;8.844;2023-07-31T09:10:12;20.50;99.90
20891;DHT22;10605;52.968;8.844;2023-07-31T09:12:38;20.70;99.90
20891;DHT22;10605;52.968;8.844;2023-07-31T09:15:05;20.90;99.90
20891;DHT22;10605;52.968;8.844;2023-07-31T09:17:32;21.00;99.90
20891;DHT22;10605;52.968;8.844;2023-07-31T09:19:59;20.90;99.90
20891;DHT22;10605;52.968;8.844;2023-07-31T09:22:38;20.60;99.90
20891;DHT22;10605;52.968;8.844;2023-07-31T09:25:20;20.20;99.90
20891;DHT22;10605;52.968;8.844;2023-07-31T09:28:07;19.80;99.90
20891;DHT22;10605;52.968;8.844;2023-07-31T09:30:50;19.60;99.90
20891;DHT22;10605;52.968;8.844;2023-07-31T09:33:18;19.70;99.90
20891;DHT22;10605;52.968;8.844;2023-07-31T09:35:44;19.70;99.90
20891;DHT22;10605;52.968;8.844;2023-07-31T09:38:12;19.60;99.90
20891;DHT22;10605;52.968;8.844;2023-07-31T09:40:40;19.70;99.90
20891;DHT22;10605;52.968;8.844;2023-07-31T09:43:08;20.00;99.90
20891;DHT22;10605;52.968;8.844;2023-07-31T09:45:37;20.40;99.90
20891;DHT22;10605;52.968;8.844;2023-07-31T09:48:10;20.60;99.90
20891;DHT22;10605;52.968;8.844;2023-07-31T09:50:41;20.90;99.90
20891;DHT22;10605;52.968;8.844;2023-07-31T09:53:08;21.20;99.90
20891;DHT22;10605;52.968;8.844;2023-07-31T09:55:34;21.30;99.90
20891;DHT22;10605;52.968;8.844;2023-07-31T09:58:05;21.40;99.90
20891;DHT22;10605;52.968;8.844;2023-07-31T10:00:31;21.40;99.90
20891;DHT22;10605;52.968;8.844;2023-07-31T10:03:04;21.00;99.90
20891;DHT22;10605;52.968;8.844;2023-07-31T10:05:39;21.10;99.90
20891;DHT22;10605;52.968;8.844;2023-07-31T10:08:07;21.00;99.90
20891;DHT22;10605;52.968;8.844;2023-07-31T10:10:36;21.10;99.90
20891;DHT22;10605;52.968;8.844;2023-07-31T10:13:04;21.10;99.90
20891;DHT22;10605;52.968;8.844;2023-07-31T10:15:31;21.50;99.90
20891;DHT22;10605;52.968;8.844;2023-07-31T10:17:58;22.30;99.90
20891;DHT22;10605;52.968;8.844;2023-07-31T10:20:24;22.30;99.90
20891;DHT22;10605;52.968;8.844;2023-07-31T10:22:51;22.10;99.90
20891;DHT22;10605;52.968;8.844;2023-07-31T10:25:18;21.80;99.90
20891;DHT22;10605;52.968;8.844;2023-07-31T10:27:45;21.70;99.90
20891;DHT22;10605;52.968;8.844;2023-07-31T10:30:15;21.50;99.90
20891;DHT22;10605;52.968;8.844;2023-07-31T10:32:43;21.70;99.90
20891;DHT22;10605;52.968;8.844;2023-07-31T10:35:09;21.80;99.90
20891;DHT22;10605;52.968;8.844;2023-07-31T10:37:39;21.90;99.90
20891;DHT22;10605;52.968;8.844;2023-07-31T10:42:47;21.90;99.90
20891;DHT22;10605;52.968;8.844;2023-07-31T10:45:24;21.90;99.90
20891;DHT22;10605;52.968;8.844;2023-07-31T10:48:01;21.90;99.90
20891;DHT22;10605;52.968;8.844;2023-07-31T10:50:28;22.00;99.90
20891;DHT22;10605;52.968;8.844;2023-07-31T10:52:55;22.30;99.90
20891;DHT22;10605;52.968;8.844;2023-07-31T10:55:33;22.20;99.90
20891;DHT22;10605;52.968;8.844;2023-07-31T10:58:37;22.50;99.90
20891;DHT22;10605;52.968;8.844;2023-07-31T11:02:01;22.30;99.90
20891;DHT22;10605;52.968;8.844;2023-07-31T11:04:29;22.70;99.90
20891;DHT22;10605;52.968;8.844;2023-07-31T11:07:00;22.60;99.90
20891;DHT22;10605;52.968;8.844;2023-07-31T11:09:30;22.70;99.90
20891;DHT22;10605;52.968;8.844;2023-07-31T11:11:58;22.40;99.90
20891;DHT22;10605;52.968;8.844;2023-07-31T11:14:24;22.80;99.90
20891;DHT22;10605;52.968;8.844;2023-07-31T11:16:50;23.70;99.90
20891;DHT22;10605;52.968;8.844;2023-07-31T11:19:26;23.80;99.90
20891;DHT22;10605;52.968;8.844;2023-07-31T11:21:53;24.20;99.90
20891;DHT22;10605;52.968;8.844;2023-07-31T11:24:18;24.10;99.90
20891;DHT22;10605;52.968;8.844;2023-07-31T11:26:51;24.00;99.90
20891;DHT22;10605;52.968;8.844;2023-07-31T11:29:20;23.30;99.90
20891;DHT22;10605;52.968;8.844;2023-07-31T11:31:46;22.80;99.90
20891;DHT22;10605;52.968;8.844;2023-07-31T11:34:59;22.50;99.90
20891;DHT22;10605;52.968;8.844;2023-07-31T11:41:00;23.00;99.90
20891;DHT22;10605;52.968;8.844;2023-07-31T11:43:33;22.90;99.90
20891;DHT22;10605;52.968;8.844;2023-07-31T11:46:02;22.60;99.90
20891;DHT22;10605;52.968;8.844;2023-07-31T11:48:30;23.00;99.90
20891;DHT22;10605;52.968;8.844;2023-07-31T11:51:00;23.20;99.90
20891;DHT22;10605;52.968;8.844;2023-07-31T11:53:40;23.40;99.90
20891;DHT22;10605;52.968;8.844;2023-07-31T11:56:09;24.20;99.90
20891;DHT22;10605;52.968;8.844;2023-07-31T11:58:37;24.80;99.90
20891;DHT22;10605;52.968;8.844;2023-07-31T12:01:04;24.50;99.90
20891;DHT22;10605;52.968;8.844;2023-07-31T12:03:31;23.70;99.90
20891;DHT22;10605;52.968;8.844;2023-07-31T12:05:58;23.30;99.90
20891;DHT22;10605;52.968;8.844;2023-07-31T12:08:25;22.80;99.90
20891;DHT22;10605;52.968;8.844;2023-07-31T12:10:52;22.80;99.90
20891;DHT22;10605;52.968;8.844;2023-07-31T12:13:23;22.60;99.90
20891;DHT22;10605;52.968;8.844;2023-07-31T12:15:54;22.60;99.90
20891;DHT22;10605;52.968;8.844;2023-07-31T12:18:20;22.70;99.90
20891;DHT22;10605;52.968;8.844;2023-07-31T12:20:48;22.60;99.90
20891;DHT22;10605;52.968;8.844;2023-07-31T12:23:20;22.50;99.90
20891;DHT22;10605;52.968;8.844;2023-07-31T12:26:07;22.90;99.90
20891;DHT22;10605;52.968;8.844;2023-07-31T12:31:04;23.50;99.90
20891;DHT22;10605;52.968;8.844;2023-07-31T12:33:34;23.50;99.90
20891;DHT22;10605;52.968;8.844;2023-07-31T12:36:02;23.40;99.90
20891;DHT22;10605;52.968;8.844;2023-07-31T12:38:28;23.30;99.90
20891;DHT22;10605;52.968;8.844;2023-07-31T12:40:54;23.00;99.90
20891;DHT22;10605;52.968;8.844;2023-07-31T12:43:20;22.60;99.90
20891;DHT22;10605;52.968;8.844;2023-07-31T12:45:46;22.40;99.90
20891;DHT22;10605;52.968;8.844;2023-07-31T12:48:13;22.50;99.90
20891;DHT22;10605;52.968;8.844;2023-07-31T12:50:39;23.00;99.90
20891;DHT22;10605;52.968;8.844;2023-07-31T12:53:10;23.20;99.90
20891;DHT22;10605;52.968;8.844;2023-07-31T12:55:40;23.30;99.90
20891;DHT22;10605;52.968;8.844;2023-07-31T12:58:23;22.90;99.90
20891;DHT22;10605;52.968;8.844;2023-07-31T13:00:51;23.20;99.90
20891;DHT22;10605;52.968;8.844;2023-07-31T13:03:19;23.30;99.90
20891;DHT22;10605;52.968;8.844;2023-07-31T13:05:46;23.10;99.90
20891;DHT22;10605;52.968;8.844;2023-07-31T13:08:12;22.60;99.90
20891;DHT22;10605;52.968;8.844;2023-07-31T13:10:38;22.10;99.90
20891;DHT22;10605;52.968;8.844;2023-07-31T13:13:03;21.90;99.90
20891;DHT22;10605;52.968;8.844;2023-07-31T13:15:29;21.70;99.90
20891;DHT22;10605;52.968;8.844;2023-07-31T13:17:58;22.20;99.90
20891;DHT22;10605;52.968;8.844;2023-07-31T13:20:25;22.80;99.90
20891;DHT22;10605;52.968;8.844;2023-07-31T13:22:50;23.60;99.90
20891;DHT22;10605;52.968;8.844;2023-07-31T13:25:16;24.00;99.90
20891;DHT22;10605;52.968;8.844;2023-07-31T13:27:42;23.10;99.90
20891;DHT22;10605;52.968;8.844;2023-07-31T13:30:08;22.70;99.90
20891;DHT22;10605;52.968;8.844;2023-07-31T13:33:07;22.60;99.90
20891;DHT22;10605;52.968;8.844;2023-07-31T13:35:36;22.30;99.90
20891;DHT22;10605;52.968;8.844;2023-07-31T13:38:01;22.10;99.90
20891;DHT22;10605;52.968;8.844;2023-07-31T13:40:27;21.90;99.90
20891;DHT22;10605;52.968;8.844;2023-07-31T13:42:53;21.90;99.90
20891;DHT22;10605;52.968;8.844;2023-07-31T13:45:20;21.70;99.90
20891;DHT22;10605;52.968;8.844;2023-07-31T13:47:46;21.60;99.90
20891;DHT22;10605;52.968;8.844;2023-07-31T13:50:13;21.60;99.90
20891;DHT22;10605;52.968;8.844;2023-07-31T13:52:39;21.80;99.90
20891;DHT22;10605;52.968;8.844;2023-07-31T13:55:05;21.80;99.90
20891;DHT22;10605;52.968;8.844;2023-07-31T14:24:26;21.50;99.90
20891;DHT22;10605;52.968;8.844;2023-07-31T14:26:52;21.30;99.90
20891;DHT22;10605;52.968;8.844;2023-07-31T14:29:17;21.70;99.90
20891;DHT22;10605;52.968;8.844;2023-07-31T14:31:43;22.50;99.90
20891;DHT22;10605;52.968;8.844;2023-07-31T14:34:09;23.30;99.90
20891;DHT22;10605;52.968;8.844;2023-07-31T14:36:35;23.40;99.90
20891;DHT22;10605;52.968;8.844;2023-07-31T14:39:00;23.40;99.90
20891;DHT22;10605;52.968;8.844;2023-07-31T14:41:26;23.20;99.90
20891;DHT22;10605;52.968;8.844;2023-07-31T14:43:51;23.50;99.90
20891;DHT22;10605;52.968;8.844;2023-07-31T14:46:17;23.20;99.90
20891;DHT22;10605;52.968;8.844;2023-07-31T14:48:43;23.00;99.90
20891;DHT22;10605;52.968;8.844;2023-07-31T14:51:08;22.40;99.90
20891;DHT22;10605;52.968;8.844;2023-07-31T14:53:34;22.00;99.90
20891;DHT22;10605;52.968;8.844;2023-07-31T14:56:00;21.70;99.90
20891;DHT22;10605;52.968;8.844;2023-07-31T14:58:25;21.60;99.90
20891;DHT22;10605;52.968;8.844;2023-07-31T15:00:51;21.40;99.90
20891;DHT22;10605;52.968;8.844;2023-07-31T15:03:17;21.30;99.90
20891;DHT22;10605;52.968;8.844;2023-07-31T15:05:42;21.20;99.90
20891;DHT22;10605;52.968;8.844;2023-07-31T15:08:08;21.00;99.90
20891;DHT22;10605;52.968;8.844;2023-07-31T15:10:34;20.80;99.90
20891;DHT22;10605;52.968;8.844;2023-07-31T15:13:00;20.70;99.90
20891;DHT22;10605;52.968;8.844;2023-07-31T15:15:26;20.50;99.90
20891;DHT22;10605;52.968;8.844;2023-07-31T15:17:52;20.40;99.90
20891;DHT22;10605;52.968;8.844;2023-07-31T15:20:18;20.40;99.90
20891;DHT22;10605;52.968;8.844;2023-07-31T15:22:43;20.40;99.90
20891;DHT22;10605;52.968;8.844;2023-07-31T15:25:09;20.30;99.90
20891;DHT22;10605;52.968;8.844;2023-07-31T15:27:35;20.10;99.90
20891;DHT22;10605;52.968;8.844;2023-07-31T15:30:00;20.10;99.90
20891;DHT22;10605;52.968;8.844;2023-07-31T15:32:26;20.10;99.90
20891;DHT22;10605;52.968;8.844;2023-07-31T15:34:52;20.20;99.90
20891;DHT22;10605;52.968;8.844;2023-07-31T15:37:18;20.60;99.90
20891;DHT22;10605;52.968;8.844;2023-07-31T15:39:43;20.70;99.90
20891;DHT22;10605;52.968;8.844;2023-07-31T15:42:09;21.00;99.90
20891;DHT22;10605;52.968;8.844;2023-07-31T15:44:35;21.50;99.90
20891;DHT22;10605;52.968;8.844;2023-07-31T15:47:01;21.80;99.90
20891;DHT22;10605;52.968;8.844;2023-07-31T15:49:26;22.20;99.90
20891;DHT22;10605;52.968;8.844;2023-07-31T15:51:52;22.30;99.90
20891;DHT22;10605;52.968;8.844;2023-07-31T15:54:18;22.10;99.90
20891;DHT22;10605;52.968;8.844;2023-07-31T15:56:44;22.00;99.90
20891;DHT22;10605;52.968;8.844;2023-07-31T15:59:09;21.60;99.90
20891;DHT22;10605;52.968;8.844;2023-07-31T16:01:35;21.10;99.90
20891;DHT22;10605;52.968;8.844;2023-07-31T16:04:01;21.00;99.90
20891;DHT22;10605;52.968;8.844;2023-07-31T16:06:27;20.70;99.90
20891;DHT22;10605;52.968;8.844;2023-07-31T16:08:52;20.70;99.90
20891;DHT22;10605;52.968;8.844;2023-07-31T16:11:20;20.90;99.90
20891;DHT22;10605;52.968;8.844;2023-07-31T16:13:45;21.10;99.90
20891;DHT22;10605;52.968;8.844;2023-07-31T16:16:11;21.20;99.90
20891;DHT22;10605;52.968;8.844;2023-07-31T16:18:36;21.30;99.90
20891;DHT22;10605;52.968;8.844;2023-07-31T16:21:02;21.10;99.90
20891;DHT22;10605;52.968;8.844;2023-07-31T16:23:28;21.00;99.90
20891;DHT22;10605;52.968;8.844;2023-07-31T16:25:53;20.70;99.90
20891;DHT22;10605;52.968;8.844;2023-07-31T16:28:19;20.60;99.90
20891;DHT22;10605;52.968;8.844;2023-07-31T16:30:45;20.70;99.90
20891;DHT22;10605;52.968;8.844;2023-07-31T16:33:12;20.80;99.90
20891;DHT22;10605;52.968;8.844;2023-07-31T16:35:37;20.80;99.90
20891;DHT22;10605;52.968;8.844;2023-07-31T16:38:03;20.80;99.90
20891;DHT22;10605;52.968;8.844;2023-07-31T16:40:29;20.80;99.90
20891;DHT22;10605;52.968;8.844;2023-07-31T16:42:55;20.70;99.90
20891;DHT22;10605;52.968;8.844;2023-07-31T16:45:20;20.80;99.90
20891;DHT22;10605;52.968;8.844;2023-07-31T16:47:46;20.60;99.90